静岡空港の過去48時間の天気

静岡空港 (Shizuoka)

現在時刻: 4/22 00:13 JST (4/21 15:13 UTC) 以下の時間は現地時間です。

過去48時間のMETAR気象情報
時間 風向 風速(m/s) 視程 気温(℃) 湿度(%) 気圧(hPa) 天気現象
21 21:00 西南西 5 10km以上 17 100 1013
21 20:00 西南西 5 10km以上 17 88 1012
21 19:00 西南西 7 10km以上 17 83 1012
21 18:00 西南西 7 10km以上 18 77 1011
21 17:00 南西 7 10km以上 20 64 1011
21 16:00 南西 7 10km以上 21 60 1010
21 15:00 南西 9 10km以上 22 53 1010
21 14:00 南西 8 10km以上 22 53 1011
21 13:00 南西 8 10km以上 22 53 1011
21 12:00 西南西 6 10km以上 23 47 1011
21 11:00 西南西 6 10km以上 22 46 1012
21 10:00 西南西 5 10km以上 20 53 1013
21 09:00 南南西 5 10km以上 19 52 1013
21 08:00 西南西 4 10km以上 17 63 1013
21 07:30 不定 1 10km以上 15 67 1014
20 21:00 北西 1 10km以上 13 88 1015
20 20:00 北北西 1 10km以上 13 82 1015
20 19:00 南西 2 10km以上 14 82 1014
20 18:00 南南東 2 10km以上 14 77 1014
20 17:00 4 10km以上 15 72 1014
20 16:00 4 10km以上 16 63 1014
20 15:00 南南東 6 10km以上 16 63 1015
20 14:00 南東 6 10km以上 16 63 1015
20 13:00 南南東 5 10km以上 17 59 1015
20 12:00 南東 6 10km以上 18 56 1015
20 11:00 南東 4 10km以上 17 59 1016
20 10:00 南東 5 10km以上 17 59 1016
20 09:00 南東 5 10km以上 17 59 1016
20 08:00 南東 7 10km以上 15 72 1015
20 07:30 南東 7 10km以上 15 67 1015
RJNS 211200Z 24009KT 9999 FEW015 BKN/// 17/17 Q1013
RJNS 211100Z 24009KT 9999 FEW030 BKN/// 17/15 Q1012
RJNS 211000Z 24013KT 200V260 9999 FEW030 BKN/// 17/14 Q1012
RJNS 210900Z 24013KT 9999 FEW030 SCT120 BKN/// 18/14 Q1011
RJNS 210800Z 23014KT 210V270 9999 FEW030 SCT/// 20/13 Q1011
RJNS 210700Z 23014KT 9999 FEW030 SCT150 21/13 Q1010
RJNS 210600Z 22017KT 9999 FEW030 SCT120 BKN/// 22/12 Q1010
RJNS 210500Z 22016KT 9999 FEW025 SCT/// 22/12 Q1011
RJNS 210400Z 23016KT 200V260 9999 FEW025 SCT/// 22/12 Q1011
RJNS 210300Z 24012KT 190V270 9999 FEW025 SCT/// 23/11 Q1011
RJNS 210200Z 24012KT 210V280 9999 FEW025 SCT/// 22/10 Q1012
RJNS 210100Z 24009KT 190V280 9999 FEW025 20/10 Q1013
RJNS 210000Z 21009KT 9999 FEW025 19/09 Q1013
RJNS 202300Z 25008KT 220V300 9999 FEW025 17/10 Q1013
RJNS 202230Z VRB01KT 9999 FEW025 15/09 Q1014
RJNS 201200Z 32002KT 9999 FEW020 BKN035 13/11 Q1015
RJNS 201100Z 33002KT 9999 FEW020 BKN025 13/10 Q1015
RJNS 201000Z 22003KT 180V240 9999 FEW020 BKN025 14/11 Q1014
RJNS 200900Z 16004KT 100V210 9999 FEW025 14/10 Q1014
RJNS 200800Z 19008KT 150V210 9999 FEW025 SCT050 15/10 Q1014
RJNS 200700Z 18008KT 130V220 9999 FEW030 16/09 Q1014
RJNS 200600Z 16011KT 130V190 9999 FEW030 16/09 Q1015
RJNS 200500Z 14012KT 9999 FEW030 16/09 Q1015
RJNS 200400Z 16009KT 110V200 9999 FEW030 SCT/// 17/09 Q1015
RJNS 200300Z 14011KT 110V180 9999 FEW030 BKN/// 18/09 Q1015
RJNS 200200Z 14008KT 090V200 9999 FEW030 SCT045 17/09 Q1016
RJNS 200100Z 14009KT 9999 FEW020 SCT030 17/09 Q1016
RJNS 200000Z 14010KT 9999 FEW020 BKN035 17/09 Q1016
RJNS 192300Z 13013KT 090V170 9999 FEW015 BKN035 15/10 Q1015
RJNS 192230Z 13014KT 9999 FEW015 BKN035 15/09 Q1015